sensor_id;sensor_type;location;lat;lon;timestamp;P1;durP1;ratioP1;P2;durP2;ratioP2
22480;SDS011;11407;56.964;-2.212;2023-01-19T00:01:38;0.60;;;0.60;;
22480;SDS011;11407;56.964;-2.212;2023-01-19T00:04:07;2.80;;;0.50;;
22480;SDS011;11407;56.964;-2.212;2023-01-19T00:06:36;3.10;;;0.73;;
22480;SDS011;11407;56.964;-2.212;2023-01-19T00:09:04;1.67;;;0.53;;
22480;SDS011;11407;56.964;-2.212;2023-01-19T00:11:33;3.13;;;0.57;;
22480;SDS011;11407;56.964;-2.212;2023-01-19T00:14:01;2.20;;;0.60;;
22480;SDS011;11407;56.964;-2.212;2023-01-19T00:16:30;2.53;;;0.67;;
22480;SDS011;11407;56.964;-2.212;2023-01-19T00:18:58;0.97;;;0.43;;
22480;SDS011;11407;56.964;-2.212;2023-01-19T00:21:26;6.17;;;0.53;;
22480;SDS011;11407;56.964;-2.212;2023-01-19T00:23:55;2.63;;;0.50;;
22480;SDS011;11407;56.964;-2.212;2023-01-19T00:26:24;0.80;;;0.50;;
22480;SDS011;11407;56.964;-2.212;2023-01-19T00:28:53;2.13;;;0.60;;
22480;SDS011;11407;56.964;-2.212;2023-01-19T00:31:21;1.97;;;0.50;;
22480;SDS011;11407;56.964;-2.212;2023-01-19T00:33:50;2.00;;;0.50;;
22480;SDS011;11407;56.964;-2.212;2023-01-19T00:36:19;0.47;;;0.47;;
22480;SDS011;11407;56.964;-2.212;2023-01-19T00:38:47;1.70;;;0.43;;
22480;SDS011;11407;56.964;-2.212;2023-01-19T00:41:16;1.30;;;0.60;;
22480;SDS011;11407;56.964;-2.212;2023-01-19T00:44:05;1.00;;;0.43;;
22480;SDS011;11407;56.964;-2.212;2023-01-19T00:46:34;2.70;;;0.30;;
22480;SDS011;11407;56.964;-2.212;2023-01-19T00:49:03;1.07;;;0.47;;
22480;SDS011;11407;56.964;-2.212;2023-01-19T00:51:31;2.23;;;0.53;;
22480;SDS011;11407;56.964;-2.212;2023-01-19T00:54:00;3.20;;;0.50;;
22480;SDS011;11407;56.964;-2.212;2023-01-19T00:56:32;1.23;;;0.53;;
22480;SDS011;11407;56.964;-2.212;2023-01-19T00:59:01;4.17;;;0.50;;
22480;SDS011;11407;56.964;-2.212;2023-01-19T01:01:30;0.63;;;0.40;;
22480;SDS011;11407;56.964;-2.212;2023-01-19T01:03:58;1.27;;;0.70;;
22480;SDS011;11407;56.964;-2.212;2023-01-19T01:06:27;0.30;;;0.30;;
22480;SDS011;11407;56.964;-2.212;2023-01-19T01:08:55;2.33;;;0.60;;
22480;SDS011;11407;56.964;-2.212;2023-01-19T01:11:23;0.60;;;0.50;;
22480;SDS011;11407;56.964;-2.212;2023-01-19T01:13:52;5.63;;;0.77;;
22480;SDS011;11407;56.964;-2.212;2023-01-19T01:16:20;1.27;;;0.57;;
22480;SDS011;11407;56.964;-2.212;2023-01-19T01:18:49;2.30;;;0.50;;
22480;SDS011;11407;56.964;-2.212;2023-01-19T01:21:17;1.53;;;0.37;;
22480;SDS011;11407;56.964;-2.212;2023-01-19T01:23:46;0.77;;;0.43;;
22480;SDS011;11407;56.964;-2.212;2023-01-19T01:26:15;3.30;;;0.60;;
22480;SDS011;11407;56.964;-2.212;2023-01-19T01:28:44;0.30;;;0.30;;
22480;SDS011;11407;56.964;-2.212;2023-01-19T01:31:12;0.70;;;0.60;;
22480;SDS011;11407;56.964;-2.212;2023-01-19T01:33:41;3.60;;;0.60;;
22480;SDS011;11407;56.964;-2.212;2023-01-19T01:36:10;4.00;;;0.40;;
22480;SDS011;11407;56.964;-2.212;2023-01-19T01:38:40;1.63;;;0.40;;
22480;SDS011;11407;56.964;-2.212;2023-01-19T01:41:09;1.47;;;0.50;;
22480;SDS011;11407;56.964;-2.212;2023-01-19T01:46:13;1.47;;;0.57;;
22480;SDS011;11407;56.964;-2.212;2023-01-19T01:48:43;2.70;;;0.53;;
22480;SDS011;11407;56.964;-2.212;2023-01-19T01:51:34;2.63;;;0.40;;
22480;SDS011;11407;56.964;-2.212;2023-01-19T01:54:19;2.57;;;0.40;;
22480;SDS011;11407;56.964;-2.212;2023-01-19T01:56:51;1.43;;;0.40;;
22480;SDS011;11407;56.964;-2.212;2023-01-19T01:59:27;1.50;;;0.47;;
22480;SDS011;11407;56.964;-2.212;2023-01-19T02:02:06;3.03;;;0.70;;
22480;SDS011;11407;56.964;-2.212;2023-01-19T02:04:59;2.90;;;0.40;;
22480;SDS011;11407;56.964;-2.212;2023-01-19T02:10:37;1.33;;;0.30;;
22480;SDS011;11407;56.964;-2.212;2023-01-19T02:13:25;1.80;;;0.47;;
22480;SDS011;11407;56.964;-2.212;2023-01-19T02:15:56;3.90;;;0.50;;
22480;SDS011;11407;56.964;-2.212;2023-01-19T02:18:27;1.67;;;0.40;;
22480;SDS011;11407;56.964;-2.212;2023-01-19T02:21:10;0.40;;;0.30;;
22480;SDS011;11407;56.964;-2.212;2023-01-19T02:26:18;1.27;;;0.30;;
22480;SDS011;11407;56.964;-2.212;2023-01-19T02:28:54;0.50;;;0.37;;
22480;SDS011;11407;56.964;-2.212;2023-01-19T02:31:26;1.57;;;0.50;;
22480;SDS011;11407;56.964;-2.212;2023-01-19T02:33:56;1.67;;;0.33;;
22480;SDS011;11407;56.964;-2.212;2023-01-19T02:39:24;3.20;;;0.60;;
22480;SDS011;11407;56.964;-2.212;2023-01-19T02:42:01;1.87;;;0.50;;
22480;SDS011;11407;56.964;-2.212;2023-01-19T02:44:33;1.50;;;0.40;;
22480;SDS011;11407;56.964;-2.212;2023-01-19T02:47:04;3.33;;;0.70;;
22480;SDS011;11407;56.964;-2.212;2023-01-19T02:49:33;3.00;;;0.57;;
22480;SDS011;11407;56.964;-2.212;2023-01-19T02:52:02;1.30;;;0.40;;
22480;SDS011;11407;56.964;-2.212;2023-01-19T02:57:25;2.10;;;0.50;;
22480;SDS011;11407;56.964;-2.212;2023-01-19T03:11:10;2.23;;;0.70;;
22480;SDS011;11407;56.964;-2.212;2023-01-19T03:18:51;1.70;;;0.60;;
22480;SDS011;11407;56.964;-2.212;2023-01-19T03:21:21;0.87;;;0.50;;
22480;SDS011;11407;56.964;-2.212;2023-01-19T03:23:52;4.03;;;0.70;;
22480;SDS011;11407;56.964;-2.212;2023-01-19T03:26:27;2.43;;;0.50;;
22480;SDS011;11407;56.964;-2.212;2023-01-19T03:29:03;3.70;;;0.53;;
22480;SDS011;11407;56.964;-2.212;2023-01-19T03:31:34;1.77;;;0.63;;
22480;SDS011;11407;56.964;-2.212;2023-01-19T03:34:06;3.17;;;0.60;;
22480;SDS011;11407;56.964;-2.212;2023-01-19T03:36:44;3.10;;;0.40;;
22480;SDS011;11407;56.964;-2.212;2023-01-19T03:39:21;3.03;;;0.70;;
22480;SDS011;11407;56.964;-2.212;2023-01-19T03:42:02;1.30;;;0.53;;
22480;SDS011;11407;56.964;-2.212;2023-01-19T03:44:37;3.20;;;0.87;;
22480;SDS011;11407;56.964;-2.212;2023-01-19T03:47:08;4.37;;;0.87;;
22480;SDS011;11407;56.964;-2.212;2023-01-19T03:49:38;1.27;;;0.50;;
22480;SDS011;11407;56.964;-2.212;2023-01-19T03:52:09;1.93;;;0.60;;
22480;SDS011;11407;56.964;-2.212;2023-01-19T03:54:38;0.93;;;0.60;;
22480;SDS011;11407;56.964;-2.212;2023-01-19T03:57:07;2.63;;;0.90;;
22480;SDS011;11407;56.964;-2.212;2023-01-19T03:59:36;1.10;;;0.77;;
22480;SDS011;11407;56.964;-2.212;2023-01-19T04:02:04;0.80;;;0.60;;
22480;SDS011;11407;56.964;-2.212;2023-01-19T04:04:33;0.93;;;0.50;;
22480;SDS011;11407;56.964;-2.212;2023-01-19T04:07:01;2.37;;;0.80;;
22480;SDS011;11407;56.964;-2.212;2023-01-19T04:09:30;1.20;;;0.50;;
22480;SDS011;11407;56.964;-2.212;2023-01-19T04:11:59;3.40;;;0.80;;
22480;SDS011;11407;56.964;-2.212;2023-01-19T04:14:28;5.47;;;1.30;;
22480;SDS011;11407;56.964;-2.212;2023-01-19T04:16:56;2.03;;;0.70;;
22480;SDS011;11407;56.964;-2.212;2023-01-19T04:19:25;2.40;;;0.80;;
22480;SDS011;11407;56.964;-2.212;2023-01-19T04:21:53;2.37;;;0.70;;
22480;SDS011;11407;56.964;-2.212;2023-01-19T04:24:22;5.47;;;0.67;;
22480;SDS011;11407;56.964;-2.212;2023-01-19T04:26:51;0.90;;;0.53;;
22480;SDS011;11407;56.964;-2.212;2023-01-19T04:29:21;1.17;;;0.70;;
22480;SDS011;11407;56.964;-2.212;2023-01-19T04:31:49;2.03;;;0.80;;
22480;SDS011;11407;56.964;-2.212;2023-01-19T04:34:19;2.60;;;0.70;;
22480;SDS011;11407;56.964;-2.212;2023-01-19T04:36:49;1.67;;;0.60;;
22480;SDS011;11407;56.964;-2.212;2023-01-19T04:39:19;1.10;;;0.63;;
22480;SDS011;11407;56.964;-2.212;2023-01-19T04:41:49;0.90;;;0.70;;
22480;SDS011;11407;56.964;-2.212;2023-01-19T04:44:18;1.37;;;0.53;;
22480;SDS011;11407;56.964;-2.212;2023-01-19T04:46:48;2.70;;;0.57;;
22480;SDS011;11407;56.964;-2.212;2023-01-19T04:49:18;1.87;;;0.50;;
22480;SDS011;11407;56.964;-2.212;2023-01-19T04:51:47;2.43;;;0.57;;
22480;SDS011;11407;56.964;-2.212;2023-01-19T04:54:17;5.40;;;1.03;;
22480;SDS011;11407;56.964;-2.212;2023-01-19T04:56:46;1.57;;;0.80;;
22480;SDS011;11407;56.964;-2.212;2023-01-19T04:59:15;4.13;;;0.90;;
22480;SDS011;11407;56.964;-2.212;2023-01-19T05:01:45;3.33;;;1.00;;
22480;SDS011;11407;56.964;-2.212;2023-01-19T05:04:15;3.73;;;1.00;;
22480;SDS011;11407;56.964;-2.212;2023-01-19T05:06:46;3.57;;;1.00;;
22480;SDS011;11407;56.964;-2.212;2023-01-19T05:09:16;1.20;;;0.70;;
22480;SDS011;11407;56.964;-2.212;2023-01-19T05:11:45;0.93;;;0.60;;
22480;SDS011;11407;56.964;-2.212;2023-01-19T05:14:14;1.57;;;0.60;;
22480;SDS011;11407;56.964;-2.212;2023-01-19T05:16:42;0.53;;;0.50;;
22480;SDS011;11407;56.964;-2.212;2023-01-19T05:19:11;1.93;;;0.60;;
22480;SDS011;11407;56.964;-2.212;2023-01-19T05:21:39;1.73;;;0.60;;
22480;SDS011;11407;56.964;-2.212;2023-01-19T05:24:08;2.23;;;0.70;;
22480;SDS011;11407;56.964;-2.212;2023-01-19T05:26:36;0.90;;;0.70;;
22480;SDS011;11407;56.964;-2.212;2023-01-19T05:29:05;2.23;;;0.60;;
22480;SDS011;11407;56.964;-2.212;2023-01-19T05:31:34;0.77;;;0.33;;
22480;SDS011;11407;56.964;-2.212;2023-01-19T05:34:03;1.60;;;0.50;;
22480;SDS011;11407;56.964;-2.212;2023-01-19T05:36:34;0.50;;;0.30;;
22480;SDS011;11407;56.964;-2.212;2023-01-19T05:39:03;0.50;;;0.50;;
22480;SDS011;11407;56.964;-2.212;2023-01-19T05:41:31;0.40;;;0.40;;
22480;SDS011;11407;56.964;-2.212;2023-01-19T05:44:00;0.90;;;0.60;;
22480;SDS011;11407;56.964;-2.212;2023-01-19T05:46:28;1.23;;;0.70;;
22480;SDS011;11407;56.964;-2.212;2023-01-19T05:48:57;1.63;;;0.70;;
22480;SDS011;11407;56.964;-2.212;2023-01-19T05:51:28;0.40;;;0.40;;
22480;SDS011;11407;56.964;-2.212;2023-01-19T05:54:01;1.73;;;0.50;;
22480;SDS011;11407;56.964;-2.212;2023-01-19T05:56:31;0.63;;;0.30;;
22480;SDS011;11407;56.964;-2.212;2023-01-19T05:58:59;1.17;;;0.63;;
22480;SDS011;11407;56.964;-2.212;2023-01-19T06:01:28;1.20;;;0.50;;
22480;SDS011;11407;56.964;-2.212;2023-01-19T06:03:58;1.50;;;0.33;;
22480;SDS011;11407;56.964;-2.212;2023-01-19T06:06:27;1.03;;;0.40;;
22480;SDS011;11407;56.964;-2.212;2023-01-19T06:08:55;0.30;;;0.30;;
22480;SDS011;11407;56.964;-2.212;2023-01-19T06:11:24;2.20;;;0.50;;
22480;SDS011;11407;56.964;-2.212;2023-01-19T06:13:52;1.90;;;0.50;;
22480;SDS011;11407;56.964;-2.212;2023-01-19T06:16:21;2.00;;;0.47;;
22480;SDS011;11407;56.964;-2.212;2023-01-19T06:18:49;2.33;;;0.50;;
22480;SDS011;11407;56.964;-2.212;2023-01-19T06:21:18;0.63;;;0.43;;
22480;SDS011;11407;56.964;-2.212;2023-01-19T06:23:46;0.97;;;0.47;;
22480;SDS011;11407;56.964;-2.212;2023-01-19T06:26:14;1.10;;;0.40;;
22480;SDS011;11407;56.964;-2.212;2023-01-19T06:28:43;1.00;;;0.63;;
22480;SDS011;11407;56.964;-2.212;2023-01-19T06:31:12;0.90;;;0.47;;
22480;SDS011;11407;56.964;-2.212;2023-01-19T06:33:41;0.37;;;0.30;;
22480;SDS011;11407;56.964;-2.212;2023-01-19T06:36:09;2.43;;;0.47;;
22480;SDS011;11407;56.964;-2.212;2023-01-19T06:38:37;0.40;;;0.30;;
22480;SDS011;11407;56.964;-2.212;2023-01-19T06:41:06;2.00;;;0.40;;
22480;SDS011;11407;56.964;-2.212;2023-01-19T06:43:34;0.83;;;0.40;;
22480;SDS011;11407;56.964;-2.212;2023-01-19T06:46:03;2.40;;;0.50;;
22480;SDS011;11407;56.964;-2.212;2023-01-19T06:48:31;0.63;;;0.50;;
22480;SDS011;11407;56.964;-2.212;2023-01-19T06:51:00;2.27;;;0.50;;
22480;SDS011;11407;56.964;-2.212;2023-01-19T06:53:29;1.27;;;0.70;;
22480;SDS011;11407;56.964;-2.212;2023-01-19T06:56:01;1.67;;;0.60;;
22480;SDS011;11407;56.964;-2.212;2023-01-19T06:58:30;2.40;;;0.50;;
22480;SDS011;11407;56.964;-2.212;2023-01-19T07:01:02;1.50;;;0.43;;
22480;SDS011;11407;56.964;-2.212;2023-01-19T07:03:32;1.63;;;0.60;;
22480;SDS011;11407;56.964;-2.212;2023-01-19T07:06:02;1.93;;;0.70;;
22480;SDS011;11407;56.964;-2.212;2023-01-19T07:08:32;2.30;;;0.70;;
22480;SDS011;11407;56.964;-2.212;2023-01-19T07:11:01;1.23;;;0.57;;
22480;SDS011;11407;56.964;-2.212;2023-01-19T07:13:32;0.40;;;0.40;;
22480;SDS011;11407;56.964;-2.212;2023-01-19T07:16:04;2.13;;;0.77;;
22480;SDS011;11407;56.964;-2.212;2023-01-19T07:18:34;2.43;;;0.60;;
22480;SDS011;11407;56.964;-2.212;2023-01-19T07:21:04;2.50;;;0.50;;
22480;SDS011;11407;56.964;-2.212;2023-01-19T07:23:33;0.70;;;0.50;;
22480;SDS011;11407;56.964;-2.212;2023-01-19T07:26:02;1.07;;;0.40;;
22480;SDS011;11407;56.964;-2.212;2023-01-19T07:28:30;4.17;;;0.80;;
22480;SDS011;11407;56.964;-2.212;2023-01-19T07:31:00;1.03;;;0.60;;
22480;SDS011;11407;56.964;-2.212;2023-01-19T07:33:29;1.83;;;0.67;;
22480;SDS011;11407;56.964;-2.212;2023-01-19T07:35:57;1.50;;;0.60;;
22480;SDS011;11407;56.964;-2.212;2023-01-19T07:38:25;2.10;;;0.90;;
22480;SDS011;11407;56.964;-2.212;2023-01-19T07:41:00;2.13;;;1.00;;
22480;SDS011;11407;56.964;-2.212;2023-01-19T07:43:31;1.73;;;0.93;;
22480;SDS011;11407;56.964;-2.212;2023-01-19T07:46:00;5.20;;;1.30;;
22480;SDS011;11407;56.964;-2.212;2023-01-19T07:48:29;5.87;;;1.27;;
22480;SDS011;11407;56.964;-2.212;2023-01-19T07:50:58;6.10;;;2.27;;
22480;SDS011;11407;56.964;-2.212;2023-01-19T07:53:36;7.63;;;2.87;;
22480;SDS011;11407;56.964;-2.212;2023-01-19T07:56:05;5.87;;;2.47;;
22480;SDS011;11407;56.964;-2.212;2023-01-19T07:58:34;5.27;;;2.57;;
22480;SDS011;11407;56.964;-2.212;2023-01-19T08:01:09;5.37;;;2.00;;
22480;SDS011;11407;56.964;-2.212;2023-01-19T08:03:38;2.43;;;1.67;;
22480;SDS011;11407;56.964;-2.212;2023-01-19T08:06:09;2.50;;;1.30;;
22480;SDS011;11407;56.964;-2.212;2023-01-19T08:08:43;1.93;;;1.30;;
22480;SDS011;11407;56.964;-2.212;2023-01-19T08:11:12;2.60;;;1.10;;
22480;SDS011;11407;56.964;-2.212;2023-01-19T08:13:40;1.63;;;1.00;;
22480;SDS011;11407;56.964;-2.212;2023-01-19T08:16:08;2.80;;;1.43;;
22480;SDS011;11407;56.964;-2.212;2023-01-19T08:18:37;4.83;;;1.80;;
22480;SDS011;11407;56.964;-2.212;2023-01-19T08:21:06;3.17;;;1.63;;
22480;SDS011;11407;56.964;-2.212;2023-01-19T08:23:35;4.83;;;1.20;;
22480;SDS011;11407;56.964;-2.212;2023-01-19T08:28:55;4.40;;;1.17;;
22480;SDS011;11407;56.964;-2.212;2023-01-19T08:31:26;1.83;;;1.13;;
22480;SDS011;11407;56.964;-2.212;2023-01-19T08:33:55;1.93;;;1.20;;
22480;SDS011;11407;56.964;-2.212;2023-01-19T08:36:23;4.60;;;1.10;;
22480;SDS011;11407;56.964;-2.212;2023-01-19T08:38:51;1.30;;;0.90;;
22480;SDS011;11407;56.964;-2.212;2023-01-19T08:41:20;6.77;;;1.20;;
22480;SDS011;11407;56.964;-2.212;2023-01-19T08:43:48;2.97;;;1.00;;
22480;SDS011;11407;56.964;-2.212;2023-01-19T08:46:17;1.17;;;1.00;;
22480;SDS011;11407;56.964;-2.212;2023-01-19T08:48:45;1.73;;;1.30;;
22480;SDS011;11407;56.964;-2.212;2023-01-19T08:51:15;2.30;;;1.10;;
22480;SDS011;11407;56.964;-2.212;2023-01-19T08:53:45;4.23;;;1.13;;
22480;SDS011;11407;56.964;-2.212;2023-01-19T08:56:14;1.53;;;1.17;;
22480;SDS011;11407;56.964;-2.212;2023-01-19T08:58:43;2.13;;;0.90;;
22480;SDS011;11407;56.964;-2.212;2023-01-19T09:01:13;3.53;;;1.30;;
22480;SDS011;11407;56.964;-2.212;2023-01-19T09:03:44;2.60;;;1.57;;
22480;SDS011;11407;56.964;-2.212;2023-01-19T09:06:13;4.13;;;1.63;;
22480;SDS011;11407;56.964;-2.212;2023-01-19T09:08:43;4.03;;;1.27;;
22480;SDS011;11407;56.964;-2.212;2023-01-19T09:11:13;5.73;;;1.20;;
22480;SDS011;11407;56.964;-2.212;2023-01-19T09:13:42;3.00;;;1.40;;
22480;SDS011;11407;56.964;-2.212;2023-01-19T09:16:11;2.70;;;0.87;;
22480;SDS011;11407;56.964;-2.212;2023-01-19T09:18:40;3.50;;;1.00;;
22480;SDS011;11407;56.964;-2.212;2023-01-19T09:21:09;1.20;;;0.80;;
22480;SDS011;11407;56.964;-2.212;2023-01-19T09:23:39;2.20;;;0.80;;
22480;SDS011;11407;56.964;-2.212;2023-01-19T09:26:07;3.40;;;1.00;;
22480;SDS011;11407;56.964;-2.212;2023-01-19T09:28:37;2.17;;;0.83;;
22480;SDS011;11407;56.964;-2.212;2023-01-19T09:31:06;1.63;;;0.70;;
22480;SDS011;11407;56.964;-2.212;2023-01-19T09:33:35;5.17;;;0.90;;
22480;SDS011;11407;56.964;-2.212;2023-01-19T09:36:03;3.10;;;0.93;;
22480;SDS011;11407;56.964;-2.212;2023-01-19T09:38:32;1.53;;;0.97;;
22480;SDS011;11407;56.964;-2.212;2023-01-19T09:41:00;1.10;;;0.80;;
22480;SDS011;11407;56.964;-2.212;2023-01-19T09:43:38;1.97;;;0.80;;
22480;SDS011;11407;56.964;-2.212;2023-01-19T09:49:13;2.63;;;1.20;;
22480;SDS011;11407;56.964;-2.212;2023-01-19T09:51:52;2.10;;;0.80;;
22480;SDS011;11407;56.964;-2.212;2023-01-19T09:54:38;1.60;;;0.93;;
22480;SDS011;11407;56.964;-2.212;2023-01-19T09:57:27;2.80;;;1.20;;
22480;SDS011;11407;56.964;-2.212;2023-01-19T09:59:57;1.83;;;1.30;;
22480;SDS011;11407;56.964;-2.212;2023-01-19T10:02:27;2.90;;;1.10;;
22480;SDS011;11407;56.964;-2.212;2023-01-19T10:05:16;4.60;;;1.17;;
22480;SDS011;11407;56.964;-2.212;2023-01-19T10:10:29;1.13;;;0.80;;
22480;SDS011;11407;56.964;-2.212;2023-01-19T10:13:43;2.90;;;1.80;;
22480;SDS011;11407;56.964;-2.212;2023-01-19T10:18:40;4.70;;;1.63;;
22480;SDS011;11407;56.964;-2.212;2023-01-19T10:23:48;2.87;;;1.37;;
22480;SDS011;11407;56.964;-2.212;2023-01-19T10:26:38;2.60;;;1.50;;
22480;SDS011;11407;56.964;-2.212;2023-01-19T10:29:25;2.87;;;1.43;;
22480;SDS011;11407;56.964;-2.212;2023-01-19T10:32:08;4.57;;;1.80;;
22480;SDS011;11407;56.964;-2.212;2023-01-19T10:34:43;2.73;;;1.03;;
22480;SDS011;11407;56.964;-2.212;2023-01-19T10:39:53;2.77;;;1.20;;
22480;SDS011;11407;56.964;-2.212;2023-01-19T10:42:35;2.73;;;1.37;;
22480;SDS011;11407;56.964;-2.212;2023-01-19T10:45:17;4.73;;;1.33;;
22480;SDS011;11407;56.964;-2.212;2023-01-19T10:47:48;1.23;;;1.00;;
22480;SDS011;11407;56.964;-2.212;2023-01-19T10:50:21;3.57;;;1.60;;
22480;SDS011;11407;56.964;-2.212;2023-01-19T10:52:52;1.43;;;1.03;;
22480;SDS011;11407;56.964;-2.212;2023-01-19T10:55:24;1.83;;;0.97;;
22480;SDS011;11407;56.964;-2.212;2023-01-19T10:57:54;3.60;;;1.20;;
22480;SDS011;11407;56.964;-2.212;2023-01-19T11:00:33;1.50;;;1.10;;
22480;SDS011;11407;56.964;-2.212;2023-01-19T11:06:08;5.73;;;2.27;;
22480;SDS011;11407;56.964;-2.212;2023-01-19T11:08:47;1.80;;;1.03;;
22480;SDS011;11407;56.964;-2.212;2023-01-19T11:11:16;1.63;;;1.23;;
22480;SDS011;11407;56.964;-2.212;2023-01-19T11:14:01;0.90;;;0.77;;
22480;SDS011;11407;56.964;-2.212;2023-01-19T11:16:38;2.73;;;0.80;;
22480;SDS011;11407;56.964;-2.212;2023-01-19T11:19:31;1.73;;;0.90;;
22480;SDS011;11407;56.964;-2.212;2023-01-19T11:22:08;3.07;;;1.30;;
22480;SDS011;11407;56.964;-2.212;2023-01-19T11:24:45;2.83;;;1.40;;
22480;SDS011;11407;56.964;-2.212;2023-01-19T11:27:17;2.13;;;1.20;;
22480;SDS011;11407;56.964;-2.212;2023-01-19T11:29:52;1.73;;;1.50;;
22480;SDS011;11407;56.964;-2.212;2023-01-19T11:32:33;1.20;;;0.77;;
22480;SDS011;11407;56.964;-2.212;2023-01-19T11:35:02;1.13;;;0.70;;
22480;SDS011;11407;56.964;-2.212;2023-01-19T11:38:18;2.27;;;1.00;;
22480;SDS011;11407;56.964;-2.212;2023-01-19T11:40:54;1.63;;;1.00;;
22480;SDS011;11407;56.964;-2.212;2023-01-19T11:43:23;0.90;;;0.80;;
22480;SDS011;11407;56.964;-2.212;2023-01-19T11:45:55;1.30;;;0.63;;
22480;SDS011;11407;56.964;-2.212;2023-01-19T11:48:26;2.57;;;0.80;;
22480;SDS011;11407;56.964;-2.212;2023-01-19T11:51:03;1.40;;;0.87;;
22480;SDS011;11407;56.964;-2.212;2023-01-19T11:53:34;1.90;;;1.00;;
22480;SDS011;11407;56.964;-2.212;2023-01-19T11:56:09;1.80;;;0.90;;
22480;SDS011;11407;56.964;-2.212;2023-01-19T11:58:40;1.13;;;0.73;;
22480;SDS011;11407;56.964;-2.212;2023-01-19T12:06:20;3.83;;;2.23;;
22480;SDS011;11407;56.964;-2.212;2023-01-19T12:11:43;2.40;;;1.70;;
22480;SDS011;11407;56.964;-2.212;2023-01-19T12:14:22;5.53;;;1.90;;
22480;SDS011;11407;56.964;-2.212;2023-01-19T12:16:55;2.80;;;1.40;;
22480;SDS011;11407;56.964;-2.212;2023-01-19T12:19:28;2.30;;;1.30;;
22480;SDS011;11407;56.964;-2.212;2023-01-19T12:22:07;1.20;;;0.80;;
22480;SDS011;11407;56.964;-2.212;2023-01-19T12:27:36;1.37;;;0.90;;
22480;SDS011;11407;56.964;-2.212;2023-01-19T12:32:46;1.60;;;1.30;;
22480;SDS011;11407;56.964;-2.212;2023-01-19T13:00:37;1.47;;;0.70;;
22480;SDS011;11407;56.964;-2.212;2023-01-19T13:06:35;1.83;;;0.90;;
22480;SDS011;11407;56.964;-2.212;2023-01-19T13:09:31;1.10;;;0.50;;
22480;SDS011;11407;56.964;-2.212;2023-01-19T13:14:46;1.80;;;1.37;;
22480;SDS011;11407;56.964;-2.212;2023-01-19T13:19:59;4.27;;;2.33;;
22480;SDS011;11407;56.964;-2.212;2023-01-19T13:25:36;1.57;;;1.27;;
22480;SDS011;11407;56.964;-2.212;2023-01-19T13:28:08;2.77;;;1.20;;
22480;SDS011;11407;56.964;-2.212;2023-01-19T13:30:43;2.37;;;1.30;;
22480;SDS011;11407;56.964;-2.212;2023-01-19T13:33:23;1.80;;;1.10;;
22480;SDS011;11407;56.964;-2.212;2023-01-19T13:35:56;2.20;;;1.03;;
22480;SDS011;11407;56.964;-2.212;2023-01-19T13:38:25;3.00;;;1.60;;
22480;SDS011;11407;56.964;-2.212;2023-01-19T13:40:56;2.30;;;1.20;;
22480;SDS011;11407;56.964;-2.212;2023-01-19T13:43:28;3.63;;;1.20;;
22480;SDS011;11407;56.964;-2.212;2023-01-19T13:46:01;1.30;;;0.90;;
22480;SDS011;11407;56.964;-2.212;2023-01-19T13:48:30;2.80;;;0.97;;
22480;SDS011;11407;56.964;-2.212;2023-01-19T13:51:03;1.20;;;1.10;;
22480;SDS011;11407;56.964;-2.212;2023-01-19T13:53:51;2.30;;;0.90;;
22480;SDS011;11407;56.964;-2.212;2023-01-19T13:56:24;1.33;;;1.03;;
22480;SDS011;11407;56.964;-2.212;2023-01-19T14:01:35;1.73;;;0.90;;
22480;SDS011;11407;56.964;-2.212;2023-01-19T14:04:27;1.47;;;1.00;;
22480;SDS011;11407;56.964;-2.212;2023-01-19T14:07:05;1.93;;;1.17;;
22480;SDS011;11407;56.964;-2.212;2023-01-19T14:09:59;0.67;;;0.67;;
22480;SDS011;11407;56.964;-2.212;2023-01-19T14:12:30;2.73;;;0.77;;
22480;SDS011;11407;56.964;-2.212;2023-01-19T14:15:00;1.00;;;0.60;;
22480;SDS011;11407;56.964;-2.212;2023-01-19T14:17:35;0.80;;;0.63;;
22480;SDS011;11407;56.964;-2.212;2023-01-19T14:20:06;1.87;;;0.97;;
22480;SDS011;11407;56.964;-2.212;2023-01-19T14:22:53;2.60;;;1.13;;
22480;SDS011;11407;56.964;-2.212;2023-01-19T14:25:30;5.50;;;2.20;;
22480;SDS011;11407;56.964;-2.212;2023-01-19T14:31:15;2.47;;;1.57;;
22480;SDS011;11407;56.964;-2.212;2023-01-19T14:33:51;3.37;;;2.10;;
22480;SDS011;11407;56.964;-2.212;2023-01-19T14:36:32;4.27;;;1.63;;
22480;SDS011;11407;56.964;-2.212;2023-01-19T14:39:04;2.37;;;1.63;;
22480;SDS011;11407;56.964;-2.212;2023-01-19T14:41:44;2.43;;;1.30;;
22480;SDS011;11407;56.964;-2.212;2023-01-19T14:44:28;3.43;;;1.30;;
22480;SDS011;11407;56.964;-2.212;2023-01-19T14:47:02;2.03;;;1.20;;
22480;SDS011;11407;56.964;-2.212;2023-01-19T14:49:45;2.00;;;1.40;;
22480;SDS011;11407;56.964;-2.212;2023-01-19T14:52:35;1.47;;;1.13;;
22480;SDS011;11407;56.964;-2.212;2023-01-19T14:55:07;3.20;;;1.20;;
22480;SDS011;11407;56.964;-2.212;2023-01-19T14:57:46;1.80;;;1.40;;
22480;SDS011;11407;56.964;-2.212;2023-01-19T15:00:16;1.67;;;1.13;;
22480;SDS011;11407;56.964;-2.212;2023-01-19T15:02:46;3.23;;;1.30;;
22480;SDS011;11407;56.964;-2.212;2023-01-19T15:05:15;1.97;;;1.33;;
22480;SDS011;11407;56.964;-2.212;2023-01-19T15:07:44;2.03;;;1.37;;
22480;SDS011;11407;56.964;-2.212;2023-01-19T15:10:18;4.87;;;1.10;;
22480;SDS011;11407;56.964;-2.212;2023-01-19T15:12:49;1.47;;;1.00;;
22480;SDS011;11407;56.964;-2.212;2023-01-19T15:15:20;3.00;;;1.20;;
22480;SDS011;11407;56.964;-2.212;2023-01-19T15:17:54;4.63;;;1.10;;
22480;SDS011;11407;56.964;-2.212;2023-01-19T15:20:25;1.63;;;1.10;;
22480;SDS011;11407;56.964;-2.212;2023-01-19T15:22:54;2.80;;;1.20;;
22480;SDS011;11407;56.964;-2.212;2023-01-19T15:25:22;2.37;;;1.00;;
22480;SDS011;11407;56.964;-2.212;2023-01-19T15:27:52;3.17;;;1.40;;
22480;SDS011;11407;56.964;-2.212;2023-01-19T15:30:26;3.90;;;1.00;;
22480;SDS011;11407;56.964;-2.212;2023-01-19T15:32:57;1.00;;;0.80;;
22480;SDS011;11407;56.964;-2.212;2023-01-19T15:35:26;1.23;;;0.87;;
22480;SDS011;11407;56.964;-2.212;2023-01-19T15:37:55;1.23;;;1.00;;
22480;SDS011;11407;56.964;-2.212;2023-01-19T15:40:24;5.47;;;1.37;;
22480;SDS011;11407;56.964;-2.212;2023-01-19T15:42:53;2.57;;;0.90;;
22480;SDS011;11407;56.964;-2.212;2023-01-19T15:48:06;4.17;;;1.27;;
22480;SDS011;11407;56.964;-2.212;2023-01-19T15:50:37;3.93;;;1.43;;
22480;SDS011;11407;56.964;-2.212;2023-01-19T15:53:06;4.47;;;2.80;;
22480;SDS011;11407;56.964;-2.212;2023-01-19T15:55:40;6.40;;;2.03;;
22480;SDS011;11407;56.964;-2.212;2023-01-19T15:58:08;6.07;;;2.37;;
22480;SDS011;11407;56.964;-2.212;2023-01-19T16:00:38;5.57;;;2.50;;
22480;SDS011;11407;56.964;-2.212;2023-01-19T16:03:06;4.63;;;2.40;;
22480;SDS011;11407;56.964;-2.212;2023-01-19T16:05:35;6.90;;;2.80;;
22480;SDS011;11407;56.964;-2.212;2023-01-19T16:08:03;4.03;;;1.67;;
22480;SDS011;11407;56.964;-2.212;2023-01-19T16:10:31;2.17;;;1.43;;
22480;SDS011;11407;56.964;-2.212;2023-01-19T16:13:02;2.40;;;1.43;;
22480;SDS011;11407;56.964;-2.212;2023-01-19T16:15:29;4.20;;;1.30;;
22480;SDS011;11407;56.964;-2.212;2023-01-19T16:18:02;2.07;;;1.07;;
22480;SDS011;11407;56.964;-2.212;2023-01-19T16:20:30;3.60;;;1.00;;
22480;SDS011;11407;56.964;-2.212;2023-01-19T16:22:57;1.63;;;1.13;;
22480;SDS011;11407;56.964;-2.212;2023-01-19T16:25:25;2.27;;;1.50;;
22480;SDS011;11407;56.964;-2.212;2023-01-19T16:27:54;2.37;;;1.30;;
22480;SDS011;11407;56.964;-2.212;2023-01-19T16:30:32;2.53;;;1.40;;
22480;SDS011;11407;56.964;-2.212;2023-01-19T16:33:05;4.13;;;1.20;;
22480;SDS011;11407;56.964;-2.212;2023-01-19T16:35:38;3.70;;;1.60;;
22480;SDS011;11407;56.964;-2.212;2023-01-19T16:38:10;6.20;;;1.40;;
22480;SDS011;11407;56.964;-2.212;2023-01-19T16:40:39;2.50;;;1.30;;
22480;SDS011;11407;56.964;-2.212;2023-01-19T16:43:11;3.77;;;1.60;;
22480;SDS011;11407;56.964;-2.212;2023-01-19T16:46:00;3.37;;;1.60;;
22480;SDS011;11407;56.964;-2.212;2023-01-19T16:48:28;4.37;;;1.73;;
22480;SDS011;11407;56.964;-2.212;2023-01-19T16:53:28;3.57;;;1.80;;